createdAt,value
2019-02-21T11:44:02.281Z,23.1
2019-02-21T13:18:58.477Z,15.7
2019-02-21T13:19:06.347Z,16.299999
2019-02-21T13:19:14.302Z,16.799999
2019-02-21T13:19:22.223Z,17.9
2019-02-21T13:19:30.118Z,18.700001
2019-02-21T13:19:38.028Z,18.4
2019-02-21T13:19:46.947Z,18.6
2019-02-21T13:19:55.430Z,17.1
2019-02-21T13:20:03.349Z,17.299999
2019-02-21T13:20:11.243Z,18.200001
2019-02-21T13:20:20.145Z,18
2019-02-21T13:20:28.064Z,18.9
2019-02-21T13:20:35.974Z,20
2019-02-21T13:20:43.866Z,20
2019-02-21T13:20:52.393Z,21.1
2019-02-21T13:21:00.261Z,21.200001
2019-02-21T13:21:08.888Z,20.200001
2019-02-21T13:21:17.773Z,21.299999
2019-02-21T13:21:25.729Z,21.1
2019-02-21T13:21:33.627Z,19.1
2019-02-21T13:21:42.483Z,19.200001
2019-02-21T13:21:50.425Z,18.700001
2019-02-21T13:21:58.341Z,17.6
2019-02-21T13:22:06.273Z,18.200001
2019-02-21T13:22:15.185Z,19
2019-02-21T13:22:23.084Z,19.700001
2019-02-21T13:22:31.023Z,20.9
2019-02-21T13:22:39.038Z,19.799999
2019-02-21T13:22:47.022Z,18.700001
2019-02-21T13:22:54.870Z,17.1
2019-02-21T13:23:02.866Z,17.9
2019-02-21T13:23:11.799Z,18.4
2019-02-21T13:23:19.779Z,18.799999
2019-02-21T13:23:27.739Z,18.799999
2019-02-21T13:23:35.691Z,18.200001
2019-02-21T13:23:45.616Z,16.9
2019-02-21T13:23:53.529Z,16.5
2019-02-21T13:24:01.420Z,16.700001
2019-02-21T13:24:09.330Z,17.9
2019-02-21T13:24:17.203Z,18.799999
2019-02-21T13:24:25.117Z,18
2019-02-21T13:24:34.064Z,17.9
2019-02-21T13:24:43.982Z,17.5
2019-02-21T13:24:52.769Z,18.4
2019-02-21T13:25:00.699Z,20.200001
2019-02-21T13:25:08.651Z,22.200001
2019-02-21T13:25:16.651Z,23.700001
2019-02-21T13:25:24.620Z,23.799999
2019-02-21T13:25:32.521Z,23.700001
2019-02-21T13:25:41.497Z,20.5
2019-02-21T13:25:51.680Z,18.5
2019-02-21T13:25:59.623Z,17
2019-02-21T13:26:08.464Z,16.9
2019-02-21T13:26:16.484Z,17
2019-02-21T13:26:24.413Z,16.700001
2019-02-21T13:26:32.300Z,16.299999
2019-02-21T13:26:40.211Z,15.9
2019-02-21T13:26:48.291Z,15.5
2019-02-21T13:26:56.226Z,15.7
